• Join FlightAware (Why Join?)
  • Login
  • US Flag 
04:30PM EDT


 

Airport Tracker/Info


-or-


 

Live Flight TrackerFlight Track Log ✈ AAL1054 ✈ 05-May-2013 ✈ KDFW - KSAT

Flight Track Log - Related Links

Times and Time Zones

All times are in EDT time to prevent confusion due to time zone crossing. See the AAL1054 flight status page for this flight to view local times or setup timezone preferences in your user account.

Time Position Orientation Groundspeed Altitude Reporting Facility
EDT Latitude Longitude Course Direction KTS MPH feet Rate Location/Type
07:43PM 32.9000 -97.0500 180° South 158 182 1,500  Level Dallas / Fort Worth TRACON
07:45PM 32.9667 -97.0667 348° North 238 274 3,700 2,460 Climbing Dallas / Fort Worth TRACON
07:46PM 32.5309 -96.9897 196° South  Level FlightAware Approximate
07:46PM 33.0167 -97.1167 320° Northwest 262 302 7,000  Level Dallas / Fort Worth TRACON
07:47PM 32.4115 -97.0177 190° South  Level FlightAware Approximate
07:47PM 33.0000 -97.2167 259° West 274 315 9,100  Level Dallas / Fort Worth TRACON
07:47PM 32.9878 -97.2550 249° West 294 338 9,600 960 Climbing Fort Worth Center
07:48PM 32.2923 -97.0470 196° South  Level FlightAware Approximate
07:48PM 32.9147 -97.2972 206° Southwest 301 346 10,600  Level Fort Worth Center
07:49PM 32.1708 -97.0500 180° South  Level FlightAware Approximate
07:49PM 32.7936 -97.2872 176° South 337 388 12,700  Level Fort Worth Center
07:50PM 32.6850 -97.2456 162° South 397 457 15,500 2,640 Climbing Fort Worth Center
07:51PM 32.5722 -97.1914 158° South 423 487 18,000 2,040 Climbing Fort Worth Center
07:53PM 32.3297 -97.0814 159° South 462 532 21,700 1,740 Climbing Fort Worth Center
07:54PM 32.1983 -97.0597 172° South 474 545 23,300 1,620 Climbing Fort Worth Center
07:55PM 32.0647 -97.0678 183° South 479 551 25,000 1,320 Climbing Fort Worth Center
07:56PM 31.9333 -97.1075 194° South 479 551 26,000 480 Climbing Fort Worth Center
07:57PM 31.8058 -97.1419 193° South 479 551 26,000  Level Fort Worth Center
07:58PM 31.6767 -97.1767 193° South 479 551 26,000  Level Fort Worth Center
08:00PM 31.5006 -97.2261 193° South 477 549 26,000  Level Houston Center
08:01PM 31.3692 -97.2606 193° South 478 550 26,000  Level Houston Center
08:02PM 31.2189 -97.3025 193° South 473 544 26,000  Level Houston Center
08:03PM 31.0906 -97.3378 193° South 473 544 26,000 -120 Level Houston Center
08:04PM 30.9653 -97.3731 194° South 470 541 25,800 -540 Descending Houston Center
08:05PM 30.8386 -97.4058 193° South 474 545 25,000 -900 Descending Houston Center
08:06PM 30.7108 -97.4400 193° South 470 541 24,000 -540 Descending Houston Center
08:07PM 30.5600 -97.4808 193° South 474 545 24,000 -60 Level Houston Center
08:08PM 30.4308 -97.5161 193° South 473 544 23,900 -1,020 Descending Houston Center
08:09PM 30.3125 -97.5736 203° Southwest 454 522 21,900 -2,340 Descending Houston Center
08:10PM 30.2069 -97.6489 212° Southwest 442 509 19,100 -2,820 Descending Houston Center
08:10PM 30.1547 -97.6842 210° Southwest 428 493 17,700 -2,880 Descending Houston Center
08:11PM 30.1053 -97.7178 210° Southwest 424 488 16,200 -2,880 Descending Houston Center
08:11PM 30.0544 -97.7550 212° Southwest 415 478 14,800 -2,760 Descending Houston Center
08:12PM 29.9942 -97.7950 210° Southwest 409 471 13,400 -1,740 Descending Houston Center
08:12PM 29.9578 -97.8203 211° Southwest 401 461 13,100 -540 Descending Houston Center
08:13PM 29.9033 -97.8572 210° Southwest 376 433 12,900 -720 Descending Houston Center
08:13PM 29.8781 -97.8861 225° Southwest 348 400 12,400 -1,020 Descending Houston Center
08:14PM 29.8406 -97.9336 228° Southwest 326 375 11,900 -1,020 Descending Houston Center
08:14PM 29.8236 -97.9556 228° Southwest 303 349 11,500 -1,560 Descending Houston Center
08:15PM 29.7778 -98.0075 225° Southwest 302 348 10,300 -1,500 Descending Houston Center
08:15PM 29.7653 -98.0256 231° Southwest 294 338 10,000 -1,560 Descending Houston Center
08:16PM 29.7219 -98.0778 226° Southwest 299 344 8,700 -1,920 Descending Houston Center
08:16PM 29.7050 -98.0981 226° Southwest 296 341 8,100 -1,560 Descending Houston Center
08:17PM 29.6614 -98.1517 227° Southwest 293 337 7,100 -1,440 Descending Houston Center
08:18PM 29.6075 -98.2183 227° Southwest 286 329 5,500 -1,440 Descending Houston Center
08:19PM 29.5922 -98.2392 230° Southwest 278 320 5,200 -900 Descending Houston Center
08:19PM 29.5572 -98.2739 221° Southwest 248 285 4,600 -1,080 Descending Houston Center
08:20PM 29.5078 -98.3203 219° Southwest 214 246 3,400 -1,020 Descending Houston Center
08:21PM 29.4783 -98.3686 235° Southwest 189 217 2,500 -720 Descending Houston Center
08:22PM 29.4869 -98.4128 283° West 155 178 2,000 -600 Descending Houston Center
08:23PM 29.5117 -98.4450 311° West 137 158 1,300 -600 Descending Houston Center
08:24PM 29.5386 -98.4783 313° West 138 159 800 -540 Descending Houston Center